KSBN/SBN METAR and TAF weather

Enter ICAO airport designator
Station Type Date Time Source
KSBN METAR 2021/05/15 01:54 UTC NOAA

KSBN 150154Z 00000KT 10SM CLR 13/00 A3025 RMK AO2 SLP245 T01330000


Station Type Date Time Source
KSBN Decoded METAR 2021/05/15 01:54 UTC NOAA

SOUTH BEND REGIONAL AIRPORT, IN, United States (KSBN) 41-42N 086-19W 237M
May 14, 2021 - 09:54 PM EDT / 2021.05.15 0154 UTC
Wind: Calm:0
Visibility: 10 mile(s):0
Sky conditions: clear
Temperature: 55.9 F (13.3 C)
Dew Point: 32.0 F (0.0 C)
Relative Humidity: 40%
Pressure (altimeter): 30.25 in. Hg (1024 hPa)
ob: KSBN 150154Z 00000KT 10SM CLR 13/00 A3025 RMK AO2 SLP245 T01330000
cycle: 2

Station Type Date Time Source
KSBN TAF 2021/05/14 18:21 UTC NOAA

TAF KSBN 141720Z 1418/1518 26005KT P6SM SKC
FM150100 18002KT P6SM SCT250

Example: see airport list